Time;durP1;ratioP1;P1;durP2;ratioP2;P2;SDS_P1;SDS_P2;PMS_P1;PMS_P2;Temp;Humidity;BMP_temperature;BMP_pressure;BME280_temperature;BME280_humidity;BME280_pressure;Samples;Min_cycle;Max_cycle;Signal;HPM_P1;HPM_P2
2023/09/09 00:00:35;;;;;;;4.67;3.90;;;16.20;99.90;;;;;;5072816;28;20191;-86
2023/09/09 00:03:01;;;;;;;4.27;3.87;;;16.10;99.90;;;;;;5066398;28;20554;-85
2023/09/09 00:05:29;;;;;;;4.00;3.60;;;16.10;1.00;;;;;;5072192;28;20533;-85
2023/09/09 00:07:55;;;;;;;4.53;3.57;;;16.10;99.90;;;;;;5074703;28;20173;-85
2023/09/09 00:10:21;;;;;;;4.63;3.90;;;16.10;99.90;;;;;;5074117;28;20561;-85
2023/09/09 00:12:46;;;;;;;4.97;4.13;;;15.80;1.00;;;;;;5073518;28;20215;-85
2023/09/09 00:15:12;;;;;;;4.73;3.70;;;15.80;1.00;;;;;;5074697;28;20565;-86
2023/09/09 00:17:38;;;;;;;4.00;3.70;;;15.80;1.00;;;;;;5073333;28;20176;-85
2023/09/09 00:20:11;;;;;;;6.07;4.07;;;15.80;1.00;;;;;;5072752;28;20640;-85
2023/09/09 00:22:36;;;;;;;4.73;3.80;;;15.80;1.00;;;;;;5074447;28;20170;-85
2023/09/09 00:25:02;;;;;;;4.53;3.97;;;15.70;1.00;;;;;;5073024;28;20180;-86
2023/09/09 00:27:28;;;;;;;5.80;4.00;;;15.60;1.00;;;;;;5072784;28;20217;-84
2023/09/09 00:29:54;;;;;;;5.70;3.80;;;15.60;1.00;;;;;;5073894;28;20180;-86
2023/09/09 00:32:19;;;;;;;4.40;4.00;;;15.50;1.00;;;;;;5073017;28;20248;-85
2023/09/09 00:34:45;;;;;;;4.97;3.93;;;15.50;1.00;;;;;;5073101;28;20173;-85
2023/09/09 00:37:10;;;;;;;4.80;3.70;;;15.50;1.00;;;;;;5072833;28;20181;-84
2023/09/09 00:39:36;;;;;;;5.23;3.70;;;15.50;1.00;;;;;;5072619;28;20161;-81
2023/09/09 00:42:01;;;;;;;4.23;3.77;;;15.50;1.00;;;;;;5074707;28;20177;-85
2023/09/09 00:44:27;;;;;;;4.60;3.60;;;15.50;1.00;;;;;;5073099;28;20208;-86
2023/09/09 00:46:53;;;;;;;3.93;3.63;;;15.50;1.00;;;;;;5073348;28;20231;-84
2023/09/09 00:49:19;;;;;;;5.03;3.77;;;15.40;1.00;;;;;;5074402;28;20181;-84
2023/09/09 00:51:45;;;;;;;4.20;3.80;;;15.30;1.00;;;;;;5074444;28;20201;-85
2023/09/09 00:54:14;;;;;;;5.27;3.40;;;15.30;1.00;;;;;;5074295;28;20190;-85
2023/09/09 00:56:41;;;;;;;4.10;3.70;;;15.30;1.00;;;;;;5074899;28;20193;-85
2023/09/09 00:59:06;;;;;;;4.33;3.93;;;15.30;1.00;;;;;;5073804;28;20173;-85
2023/09/09 01:01:32;;;;;;;5.97;4.07;;;15.20;1.00;;;;;;5074293;28;20263;-84
2023/09/09 01:03:59;;;;;;;5.10;3.93;;;15.10;1.00;;;;;;5074618;28;20173;-85
2023/09/09 01:06:24;;;;;;;5.50;4.20;;;15.10;1.00;;;;;;5072684;28;20212;-85
2023/09/09 01:08:50;;;;;;;4.10;3.70;;;15.20;1.00;;;;;;5074247;28;20177;-86
2023/09/09 01:11:16;;;;;;;6.00;3.77;;;15.30;1.00;;;;;;5072487;28;20232;-85
2023/09/09 01:13:41;;;;;;;6.03;3.87;;;15.10;1.00;;;;;;5074017;28;20173;-85
2023/09/09 01:16:07;;;;;;;5.77;3.80;;;14.90;1.00;;;;;;5074113;28;20204;-85
2023/09/09 01:18:34;;;;;;;5.53;3.70;;;14.80;1.00;;;;;;5072823;28;20227;-84
2023/09/09 01:21:19;;;;;;;4.10;3.70;;;14.80;8.00;;;;;;5075111;28;20223;-85
2023/09/09 01:23:45;;;;;;;5.43;4.27;;;14.90;1.00;;;;;;5069283;28;20173;-84
2023/09/09 01:26:10;;;;;;;5.63;4.23;;;15.00;1.00;;;;;;5067505;28;20539;-84
2023/09/09 01:28:36;;;;;;;4.47;4.00;;;15.10;1.00;;;;;;5068413;28;20178;-85
2023/09/09 01:31:02;;;;;;;4.77;4.10;;;15.00;1.00;;;;;;5068716;28;20244;-85
2023/09/09 01:33:28;;;;;;;4.20;3.80;;;15.10;1.00;;;;;;5069805;28;20170;-85
2023/09/09 01:35:53;;;;;;;7.23;4.00;;;15.10;1.00;;;;;;5069495;28;20200;-85
2023/09/09 01:38:19;;;;;;;4.47;3.50;;;15.10;1.00;;;;;;5069489;28;20168;-84
2023/09/09 01:40:44;;;;;;;5.07;3.80;;;14.90;1.00;;;;;;5068844;28;20208;-85
2023/09/09 01:43:10;;;;;;;5.60;4.40;;;14.90;1.00;;;;;;5068673;28;20176;-85
2023/09/09 01:45:36;;;;;;;5.30;3.90;;;14.90;1.00;;;;;;5068904;28;20208;-86
2023/09/09 01:48:01;;;;;;;4.13;3.67;;;14.80;1.00;;;;;;5070227;28;20241;-85
2023/09/09 01:50:27;;;;;;;3.90;3.50;;;14.90;1.00;;;;;;5068411;28;20206;-85
2023/09/09 01:52:52;;;;;;;4.50;3.90;;;14.80;1.00;;;;;;5069575;28;20178;-85
2023/09/09 01:55:18;;;;;;;3.90;3.60;;;14.80;1.00;;;;;;5069995;28;20200;-86
2023/09/09 01:57:44;;;;;;;5.13;3.80;;;14.80;1.00;;;;;;5069836;28;20674;-86
2023/09/09 02:00:10;;;;;;;4.53;4.00;;;14.70;1.00;;;;;;5069154;28;20173;-85
2023/09/09 02:02:35;;;;;;;4.20;3.80;;;14.70;1.00;;;;;;5068921;28;20200;-85
2023/09/09 02:05:01;;;;;;;5.70;3.87;;;14.80;1.00;;;;;;5069241;28;20170;-85
2023/09/09 02:07:27;;;;;;;4.60;3.87;;;14.80;1.00;;;;;;5069775;28;20209;-86
2023/09/09 02:09:53;;;;;;;4.30;3.70;;;14.80;1.00;;;;;;5069624;28;20188;-87
2023/09/09 02:12:18;;;;;;;4.00;3.53;;;14.70;1.00;;;;;;5069097;28;20206;-85
2023/09/09 02:14:44;;;;;;;3.63;3.33;;;14.60;1.00;;;;;;5069475;28;20255;-85
2023/09/09 02:17:11;;;;;;;4.53;3.63;;;14.50;1.00;;;;;;5070454;28;20182;-85
2023/09/09 02:19:36;;;;;;;6.90;3.70;;;14.40;1.00;;;;;;5069568;28;20181;-83
2023/09/09 02:22:02;;;;;;;4.30;3.77;;;14.30;1.00;;;;;;5069906;28;20181;-85
2023/09/09 02:24:28;;;;;;;3.80;3.50;;;14.50;1.00;;;;;;5069282;28;20185;-85
2023/09/09 02:26:53;;;;;;;4.10;3.70;;;14.60;1.00;;;;;;5068256;28;20204;-87
2023/09/09 02:29:19;;;;;;;4.30;3.77;;;14.70;1.00;;;;;;5058556;28;20170;-85
2023/09/09 02:31:45;;;;;;;3.97;3.57;;;14.70;1.00;;;;;;5053095;28;20272;-84
2023/09/09 02:34:10;;;;;;;5.03;3.50;;;14.60;1.00;;;;;;5053633;28;20165;-85
2023/09/09 02:36:36;;;;;;;4.97;3.87;;;14.60;1.00;;;;;;5061040;28;20253;-85
2023/09/09 02:39:01;;;;;;;4.93;4.10;;;14.60;1.00;;;;;;5064130;28;20166;-84
2023/09/09 02:41:29;;;;;;;5.43;3.93;;;14.50;1.00;;;;;;5063013;28;20177;-85
2023/09/09 02:43:54;;;;;;;5.77;4.50;;;14.50;1.00;;;;;;5052370;28;20228;-84
2023/09/09 02:46:21;;;;;;;4.50;3.90;;;14.30;1.00;;;;;;5061720;28;20225;-85
2023/09/09 02:48:47;;;;;;;5.00;3.90;;;14.30;1.00;;;;;;5056843;28;20189;-85
2023/09/09 02:51:13;;;;;;;4.80;4.13;;;14.30;1.00;;;;;;5066374;28;20201;-85
2023/09/09 02:53:38;;;;;;;4.30;3.90;;;14.20;1.00;;;;;;5064279;28;20180;-84
2023/09/09 02:56:04;;;;;;;4.33;3.97;;;14.30;1.00;;;;;;5071998;28;20185;-84
2023/09/09 02:58:29;;;;;;;4.13;3.50;;;14.30;1.00;;;;;;5074234;28;20176;-84
2023/09/09 03:01:03;;;;;;;4.70;4.00;;;14.20;1.00;;;;;;5073714;28;20191;-84
2023/09/09 03:03:31;;;;;;;5.13;3.93;;;14.30;1.00;;;;;;5074194;28;20191;-85
2023/09/09 03:05:57;;;;;;;4.93;3.97;;;14.30;1.00;;;;;;5066724;28;20212;-84
2023/09/09 03:08:22;;;;;;;4.43;4.03;;;14.20;1.00;;;;;;5055973;28;20189;-84
2023/09/09 03:10:48;;;;;;;4.43;3.73;;;14.10;1.00;;;;;;5054921;28;20213;-84
2023/09/09 03:13:13;;;;;;;4.20;3.80;;;14.00;1.00;;;;;;5053977;28;20201;-85
2023/09/09 03:15:39;;;;;;;4.93;3.70;;;14.00;1.00;;;;;;5053935;28;20224;-84
2023/09/09 03:18:04;;;;;;;5.43;3.80;;;13.90;64.70;;;;;;5053974;28;20170;-84
2023/09/09 03:20:30;;;;;;;4.17;3.77;;;13.90;16.40;;;;;;5055132;28;20205;-84
2023/09/09 03:22:58;;;;;;;6.07;4.00;;;13.90;38.10;;;;;;5055172;28;20277;-84
2023/09/09 03:25:24;;;;;;;4.37;3.90;;;13.90;56.70;;;;;;5054126;28;20212;-85
2023/09/09 03:27:50;;;;;;;5.73;3.90;;;14.00;12.00;;;;;;5055046;28;20203;-84
2023/09/09 03:30:15;;;;;;;4.13;3.73;;;14.00;1.00;;;;;;5054291;28;20222;-84
2023/09/09 03:32:41;;;;;;;4.57;4.00;;;14.10;1.00;;;;;;5060332;28;20647;-84
2023/09/09 03:35:07;;;;;;;4.60;4.13;;;13.90;1.00;;;;;;5063164;28;20170;-85
2023/09/09 03:37:33;;;;;;;4.43;4.03;;;13.90;1.00;;;;;;5073306;28;20192;-85
2023/09/09 03:39:58;;;;;;;4.33;3.93;;;13.90;1.00;;;;;;5073098;28;20636;-84
2023/09/09 03:42:24;;;;;;;4.20;3.80;;;13.90;1.00;;;;;;5073452;28;20639;-85
2023/09/09 03:44:49;;;;;;;4.80;3.70;;;13.80;1.00;;;;;;5073576;28;20582;-84
2023/09/09 03:47:15;;;;;;;4.00;3.60;;;13.80;1.00;;;;;;5073631;28;20200;-84
2023/09/09 03:49:40;;;;;;;5.37;3.90;;;13.80;1.00;;;;;;5074381;28;20175;-85
2023/09/09 03:52:06;;;;;;;4.87;4.10;;;13.80;1.00;;;;;;5074656;28;20319;-84
2023/09/09 03:54:32;;;;;;;4.90;4.40;;;13.80;1.00;;;;;;5073706;28;20230;-84
2023/09/09 03:56:57;;;;;;;6.50;4.57;;;13.70;31.00;;;;;;5073283;28;20196;-84
2023/09/09 03:59:24;;;;;;;4.23;3.77;;;13.80;38.70;;;;;;5074763;28;20162;-84
2023/09/09 04:01:49;;;;;;;3.97;3.60;;;13.70;1.00;;;;;;5073267;28;20177;-84
2023/09/09 04:04:15;;;;;;;4.57;3.73;;;13.60;1.00;;;;;;5074675;28;20168;-84
2023/09/09 04:06:40;;;;;;;5.63;4.10;;;13.60;5.00;;;;;;5074166;28;20219;-84
2023/09/09 04:09:06;;;;;;;4.50;4.10;;;13.60;1.00;;;;;;5074832;28;20198;-85
2023/09/09 04:11:31;;;;;;;4.83;4.20;;;13.70;1.00;;;;;;5073951;28;20247;-85
2023/09/09 04:13:59;;;;;;;4.10;3.70;;;13.80;1.00;;;;;;5073500;28;20193;-84
2023/09/09 04:16:25;;;;;;;5.07;3.90;;;13.90;1.00;;;;;;5074463;28;20271;-84
2023/09/09 04:18:50;;;;;;;4.30;3.90;;;13.90;1.00;;;;;;5073237;28;20280;-85
2023/09/09 04:21:16;;;;;;;4.33;3.73;;;13.80;1.00;;;;;;5074035;28;20173;-86
2023/09/09 04:23:41;;;;;;;4.23;3.83;;;13.80;1.00;;;;;;5073295;28;20185;-84
2023/09/09 04:26:07;;;;;;;5.10;4.40;;;13.60;1.00;;;;;;5072999;28;20189;-84
2023/09/09 04:28:32;;;;;;;7.07;3.90;;;13.50;1.00;;;;;;5073097;28;20181;-84
2023/09/09 04:30:58;;;;;;;6.37;3.63;;;13.50;1.00;;;;;;5073985;28;20201;-85
2023/09/09 04:33:24;;;;;;;5.80;4.07;;;13.50;14.40;;;;;;5073002;28;20610;-84
2023/09/09 04:35:49;;;;;;;4.63;3.90;;;13.40;1.00;;;;;;5073052;28;20193;-84
2023/09/09 04:38:15;;;;;;;3.90;3.60;;;13.40;1.00;;;;;;5074918;28;20177;-84
2023/09/09 04:40:41;;;;;;;4.00;3.60;;;13.50;1.00;;;;;;5073783;28;20177;-84
2023/09/09 04:43:07;;;;;;;4.10;3.70;;;13.60;1.00;;;;;;5074238;28;20176;-84
2023/09/09 04:45:32;;;;;;;4.70;3.80;;;13.60;1.00;;;;;;5072848;28;20189;-84
2023/09/09 04:47:58;;;;;;;4.17;3.60;;;13.60;1.00;;;;;;5075551;28;20173;-82
2023/09/09 04:50:23;;;;;;;4.23;3.60;;;13.60;1.00;;;;;;5075483;28;20197;-81
2023/09/09 04:52:49;;;;;;;5.23;4.70;;;13.50;1.00;;;;;;5078546;28;20169;-83
2023/09/09 04:55:15;;;;;;;5.03;4.37;;;13.40;1.00;;;;;;5076083;28;20172;-81
2023/09/09 04:57:41;;;;;;;4.70;4.23;;;13.30;1.00;;;;;;5076190;28;20203;-81
2023/09/09 05:00:07;;;;;;;4.63;4.00;;;13.30;1.00;;;;;;5075185;28;20169;-83
2023/09/09 05:02:34;;;;;;;6.13;4.10;;;13.30;1.00;;;;;;5076529;28;20172;-83
2023/09/09 05:05:03;;;;;;;4.70;4.17;;;13.20;1.00;;;;;;5078483;28;20192;-82
2023/09/09 05:07:32;;;;;;;5.17;3.73;;;13.20;24.70;;;;;;5068522;28;20208;-83
2023/09/09 05:09:58;;;;;;;4.67;3.97;;;13.30;1.00;;;;;;5076375;28;20200;-83
2023/09/09 05:12:24;;;;;;;5.03;3.90;;;13.20;1.00;;;;;;5078393;28;20630;-83
2023/09/09 05:14:49;;;;;;;4.40;4.00;;;13.20;1.00;;;;;;5076280;28;20168;-83
2023/09/09 05:17:15;;;;;;;4.67;4.20;;;13.20;1.00;;;;;;5077811;28;20246;-83
2023/09/09 05:19:40;;;;;;;4.40;4.00;;;13.30;1.00;;;;;;5077679;28;20177;-83
2023/09/09 05:22:06;;;;;;;4.80;3.70;;;13.40;1.00;;;;;;5079073;28;20211;-83
2023/09/09 05:24:32;;;;;;;4.10;3.40;;;13.30;1.00;;;;;;5076587;28;20181;-83
2023/09/09 05:26:58;;;;;;;4.40;4.00;;;13.20;1.00;;;;;;5078570;28;20193;-83
2023/09/09 05:29:23;;;;;;;4.43;4.00;;;13.20;1.00;;;;;;5079160;28;20180;-83
2023/09/09 05:31:49;;;;;;;4.60;3.57;;;13.20;1.00;;;;;;5074499;28;20197;-85
2023/09/09 05:34:14;;;;;;;4.10;3.67;;;13.20;96.00;;;;;;5071338;28;20263;-86
2023/09/09 05:36:40;;;;;;;4.90;3.90;;;13.20;99.90;;;;;;5071393;28;20196;-85
2023/09/09 05:39:05;;;;;;;5.67;3.80;;;13.10;99.90;;;;;;5072356;28;20247;-84
2023/09/09 05:41:31;;;;;;;4.43;3.90;;;13.30;99.90;;;;;;5071156;28;20172;-84
2023/09/09 05:43:56;;;;;;;4.20;3.80;;;13.30;93.80;;;;;;5071565;28;20181;-84
2023/09/09 05:46:22;;;;;;;5.83;4.20;;;13.40;94.90;;;;;;5072455;28;20288;-84
2023/09/09 05:48:48;;;;;;;4.30;3.90;;;13.40;99.90;;;;;;5071070;28;20226;-83
2023/09/09 05:51:13;;;;;;;3.53;3.23;;;13.40;99.90;;;;;;5071709;28;20691;-85
2023/09/09 05:53:41;;;;;;;4.30;3.73;;;13.40;99.90;;;;;;5071181;28;20173;-82
2023/09/09 05:56:06;;;;;;;4.20;3.80;;;13.50;99.90;;;;;;5071122;28;20193;-88
2023/09/09 05:58:33;;;;;;;5.07;3.93;;;13.60;99.90;;;;;;5071439;28;20241;-86
2023/09/09 06:00:59;;;;;;;4.23;3.83;;;13.60;99.90;;;;;;5071944;28;20180;-84
2023/09/09 06:03:26;;;;;;;4.63;4.23;;;13.70;99.90;;;;;;5072535;28;20180;-81
2023/09/09 06:05:51;;;;;;;4.70;4.30;;;13.90;99.90;;;;;;5070781;28;20205;-85
2023/09/09 06:08:18;;;;;;;4.77;4.00;;;14.00;99.90;;;;;;5070958;28;20215;-85
2023/09/09 06:10:44;;;;;;;5.47;4.00;;;14.10;99.90;;;;;;5070032;28;20208;-85
2023/09/09 06:13:09;;;;;;;5.03;4.00;;;14.10;85.00;;;;;;5070647;28;20171;-85
2023/09/09 06:15:35;;;;;;;5.13;3.93;;;14.30;99.90;;;;;;5070757;28;20189;-86
2023/09/09 06:18:00;;;;;;;5.67;4.33;;;14.60;99.90;;;;;;5071867;28;20547;-85
2023/09/09 06:20:26;;;;;;;5.23;4.43;;;14.90;99.90;;;;;;5071467;28;20180;-85
2023/09/09 06:22:52;;;;;;;6.20;4.27;;;15.10;93.90;;;;;;5071826;28;20161;-86
2023/09/09 06:25:18;;;;;;;4.50;4.10;;;15.30;99.90;;;;;;5070822;28;20264;-84
2023/09/09 06:27:44;;;;;;;5.10;4.40;;;15.60;99.90;;;;;;5072068;28;20256;-84
2023/09/09 06:30:10;;;;;;;4.60;4.20;;;15.80;99.90;;;;;;5071984;28;20180;-85
2023/09/09 06:32:36;;;;;;;5.23;4.50;;;16.00;99.90;;;;;;5075102;28;20180;-83
2023/09/09 06:35:02;;;;;;;5.03;4.53;;;16.00;99.90;;;;;;5074658;28;20165;-85
2023/09/09 06:37:28;;;;;;;5.30;4.50;;;16.10;90.10;;;;;;5075525;28;20551;-85
2023/09/09 06:39:54;;;;;;;5.00;4.57;;;16.30;87.60;;;;;;5074244;28;20769;-86
2023/09/09 06:42:21;;;;;;;6.10;5.23;;;16.30;27.70;;;;;;5074639;28;20177;-85
2023/09/09 06:44:47;;;;;;;5.60;5.10;;;16.40;9.00;;;;;;5075661;28;20172;-85
2023/09/09 06:47:12;;;;;;;5.47;4.60;;;16.40;1.00;;;;;;5074549;28;20197;-85
2023/09/09 06:49:38;;;;;;;5.67;4.80;;;16.50;36.30;;;;;;5073951;28;20234;-86
2023/09/09 06:52:04;;;;;;;5.30;4.80;;;16.50;19.70;;;;;;5074034;28;20200;-85
2023/09/09 06:54:30;;;;;;;5.77;5.00;;;16.70;27.50;;;;;;5075809;28;20165;-84
2023/09/09 06:56:55;;;;;;;5.37;4.63;;;16.80;2.50;;;;;;5075515;28;20215;-86
2023/09/09 06:59:21;;;;;;;5.60;5.10;;;16.90;37.30;;;;;;5075645;28;20165;-85
2023/09/09 07:01:47;;;;;;;6.47;5.17;;;17.00;7.60;;;;;;5073690;28;20173;-84
2023/09/09 07:04:13;;;;;;;6.53;5.30;;;17.00;22.30;;;;;;5074117;28;20177;-84
2023/09/09 07:06:38;;;;;;;7.53;5.37;;;17.20;82.20;;;;;;5073753;28;20236;-84
2023/09/09 07:09:04;;;;;;;5.57;5.03;;;17.50;1.00;;;;;;5075821;28;20181;-83
2023/09/09 07:11:29;;;;;;;5.90;4.60;;;17.70;1.00;;;;;;5073434;28;20694;-84
2023/09/09 07:13:55;;;;;;;7.30;4.70;;;17.90;1.00;;;;;;5074400;28;20631;-83
2023/09/09 07:16:22;;;;;;;5.27;4.53;;;18.00;1.00;;;;;;5074277;28;20246;-84
2023/09/09 07:18:47;;;;;;;7.00;5.53;;;18.20;1.00;;;;;;5075515;28;20169;-83
2023/09/09 07:21:13;;;;;;;6.63;4.80;;;18.30;99.90;;;;;;5073429;28;20631;-84
2023/09/09 07:23:39;;;;;;;6.07;5.50;;;18.40;99.90;;;;;;5075378;28;20176;-83
2023/09/09 07:26:04;;;;;;;7.13;5.93;;;18.50;59.70;;;;;;5074180;28;20203;-83
2023/09/09 07:28:30;;;;;;;8.67;7.47;;;18.30;99.90;;;;;;5074241;28;20184;-84
2023/09/09 07:31:00;;;;;;;8.00;7.20;;;18.50;99.90;;;;;;5073795;28;20193;-85
2023/09/09 07:33:25;;;;;;;6.47;5.83;;;18.30;32.50;;;;;;5075381;28;20197;-84
2023/09/09 07:35:52;;;;;;;8.50;6.00;;;18.00;1.00;;;;;;5073868;28;20679;-83
2023/09/09 07:38:18;;;;;;;8.07;5.97;;;18.10;1.00;;;;;;5075985;28;20185;-83
2023/09/09 07:40:44;;;;;;;8.03;6.20;;;18.30;1.00;;;;;;5073650;28;20202;-85
2023/09/09 07:43:09;;;;;;;7.67;6.73;;;18.50;1.00;;;;;;5073579;28;20212;-83
2023/09/09 07:45:35;;;;;;;10.37;6.57;;;18.60;99.90;;;;;;5075649;28;20188;-83
2023/09/09 07:48:00;;;;;;;6.30;5.30;;;18.60;1.00;;;;;;5075603;28;20168;-83
2023/09/09 07:50:26;;;;;;;7.60;5.60;;;18.70;99.90;;;;;;5073391;28;20174;-83
2023/09/09 07:52:51;;;;;;;7.13;6.40;;;18.90;1.00;;;;;;5074967;28;20171;-85
2023/09/09 07:55:17;;;;;;;8.00;5.80;;;19.20;99.90;;;;;;5073107;28;20219;-84
2023/09/09 07:57:42;;;;;;;6.90;6.20;;;19.40;1.00;;;;;;5074364;28;20165;-85
2023/09/09 08:00:08;;;;;;;7.72;6.10;;;19.50;99.90;;;;;;5073664;28;20258;-84
2023/09/09 08:02:35;;;;;;;6.93;6.32;;;19.60;99.90;;;;;;5073021;28;20179;-85
2023/09/09 08:05:01;;;;;;;6.80;5.38;;;19.80;1.00;;;;;;5074209;28;20260;-85
2023/09/09 08:07:27;;;;;;;7.50;6.80;;;19.80;99.90;;;;;;5074168;28;20209;-85
2023/09/09 08:09:53;;;;;;;8.45;7.18;;;19.80;1.00;;;;;;5073728;28;20183;-85
2023/09/09 08:12:19;;;;;;;7.65;6.82;;;19.90;1.00;;;;;;5072828;28;20193;-85
2023/09/09 08:14:44;;;;;;;8.98;6.72;;;19.90;99.90;;;;;;5072761;28;20173;-85
2023/09/09 08:17:10;;;;;;;8.50;6.82;;;20.00;99.90;;;;;;5073979;28;20193;-85
2023/09/09 08:19:35;;;;;;;10.48;7.03;;;20.10;99.90;;;;;;5071958;28;20193;-83
2023/09/09 08:22:01;;;;;;;7.82;6.50;;;20.10;99.90;;;;;;5073896;28;20238;-85
2023/09/09 08:24:27;;;;;;;8.30;6.18;;;20.10;1.00;;;;;;5073950;28;20181;-85
2023/09/09 08:26:52;;;;;;;7.10;6.40;;;20.30;99.90;;;;;;5072591;28;20624;-85
2023/09/09 08:29:18;;;;;;;7.47;6.10;;;20.50;1.00;;;;;;5072456;28;20173;-86
2023/09/09 08:31:47;;;;;;;7.32;5.82;;;20.70;1.00;;;;;;5071775;28;20201;-85
2023/09/09 08:34:12;;;;;;;7.50;6.07;;;20.80;1.00;;;;;;5072225;28;20165;-85
2023/09/09 08:36:38;;;;;;;7.03;6.22;;;20.90;99.90;;;;;;5072414;28;20189;-86
2023/09/09 08:39:03;;;;;;;9.55;6.20;;;21.10;1.00;;;;;;5074019;28;20177;-85
2023/09/09 08:41:42;;;;;;;6.47;5.88;;;21.30;1.00;;;;;;5071801;28;20180;-85
2023/09/09 08:44:28;;;;;;;8.30;6.03;;;21.30;99.90;;;;;;5073750;28;20666;-85
2023/09/09 08:46:54;;;;;;;6.43;5.82;;;21.50;99.90;;;;;;5073490;28;20223;-83
2023/09/09 08:49:23;;;;;;;6.53;5.90;;;21.60;1.00;;;;;;5073349;28;20175;-85
2023/09/09 08:51:54;;;;;;;7.07;5.90;;;21.80;1.00;;;;;;5071588;28;20201;-85
2023/09/09 08:54:19;;;;;;;9.88;5.88;;;22.00;1.00;;;;;;5070898;28;20169;-85
2023/09/09 08:56:45;;;;;;;6.32;5.72;;;22.20;1.00;;;;;;5071898;28;20212;-85
2023/09/09 08:59:12;;;;;;;6.30;5.70;;;22.40;99.90;;;;;;5073049;28;20212;-86
2023/09/09 09:01:39;;;;;;;6.32;5.65;;;22.50;1.00;;;;;;5072812;28;20260;-85
2023/09/09 09:04:05;;;;;;;6.68;5.38;;;22.60;1.00;;;;;;5073129;28;20194;-85
2023/09/09 09:06:31;;;;;;;6.07;5.30;;;22.70;1.00;;;;;;5071579;28;20299;-84
2023/09/09 09:08:57;;;;;;;6.00;5.43;;;22.90;99.90;;;;;;5072296;28;20556;-84
2023/09/09 09:11:23;;;;;;;6.30;5.30;;;23.00;99.90;;;;;;5071492;28;20193;-84
2023/09/09 09:13:50;;;;;;;8.32;6.90;;;23.10;1.00;;;;;;5073118;28;20272;-84
2023/09/09 09:16:16;;;;;;;6.07;5.47;;;23.40;1.00;;;;;;5073343;28;20193;-84
2023/09/09 09:18:42;;;;;;;6.38;5.28;;;23.60;1.00;;;;;;5073091;28;20169;-84
2023/09/09 09:21:11;;;;;;;9.20;5.50;;;23.80;1.00;;;;;;5072631;28;20236;-84
2023/09/09 09:23:43;;;;;;;6.28;5.40;;;24.00;99.90;;;;;;5071356;28;20169;-85
2023/09/09 09:26:26;;;;;;;8.38;5.57;;;24.10;99.90;;;;;;5071624;28;20197;-85
2023/09/09 09:28:52;;;;;;;5.53;5.03;;;24.30;99.90;;;;;;5071931;28;20172;-84
2023/09/09 09:31:22;;;;;;;6.60;5.20;;;24.50;99.90;;;;;;5072131;28;20686;-84
2023/09/09 09:33:50;;;;;;;6.43;5.43;;;24.70;1.00;;;;;;5065338;28;20204;-84
2023/09/09 09:36:17;;;;;;;6.43;5.47;;;24.90;37.60;;;;;;5066747;28;20283;-85
2023/09/09 09:38:43;;;;;;;7.88;5.70;;;25.00;1.00;;;;;;5067132;28;20165;-85
2023/09/09 09:41:09;;;;;;;6.78;6.05;;;25.30;91.60;;;;;;5075440;28;20560;-84
2023/09/09 09:43:36;;;;;;;6.43;5.80;;;25.40;99.90;;;;;;5076741;28;20177;-83
2023/09/09 09:46:15;;;;;;;7.00;5.85;;;25.50;1.00;;;;;;5075375;28;20629;-83
2023/09/09 09:48:40;;;;;;;6.28;5.68;;;25.60;99.90;;;;;;5064491;28;20168;-84
2023/09/09 09:51:06;;;;;;;6.68;5.75;;;25.70;99.90;;;;;;5055471;28;20652;-84
2023/09/09 09:53:34;;;;;;;8.45;6.50;;;25.90;99.90;;;;;;5053229;28;20166;-86
2023/09/09 09:56:02;;;;;;;7.03;6.32;;;25.90;99.90;;;;;;5051286;28;20196;-87
2023/09/09 09:58:31;;;;;;;9.20;6.18;;;26.10;99.90;;;;;;5052223;28;20169;-85
2023/09/09 10:00:58;;;;;;;7.32;6.63;;;26.40;93.40;;;;;;5057612;28;20173;-84
2023/09/09 10:03:29;;;;;;;8.23;6.80;;;26.40;1.00;;;;;;5062479;28;20172;-85
2023/09/09 10:05:55;;;;;;;7.22;6.53;;;26.50;1.00;;;;;;5074185;28;20209;-85
2023/09/09 10:08:31;;;;;;;7.15;6.45;;;26.60;1.00;;;;;;5072015;28;20180;-85
2023/09/09 10:11:05;;;;;;;7.15;6.28;;;26.90;1.00;;;;;;5071810;28;20200;-85
2023/09/09 10:13:48;;;;;;;8.63;6.00;;;27.00;99.90;;;;;;5071908;28;20160;-85
2023/09/09 10:16:17;;;;;;;5.60;4.60;;;27.30;1.00;;;;;;5070739;28;20200;-87
2023/09/09 10:18:44;;;;;;;4.90;4.40;;;27.30;1.00;;;;;;5071615;28;20181;-85
2023/09/09 10:21:12;;;;;;;6.18;4.60;;;27.40;1.00;;;;;;5072798;28;20177;-84
2023/09/09 10:23:38;;;;;;;4.80;4.32;;;27.50;1.00;;;;;;5073982;28;20177;-85
2023/09/09 10:26:04;;;;;;;6.65;3.80;;;27.40;1.00;;;;;;5073407;28;20193;-85
2023/09/09 10:28:31;;;;;;;5.25;4.38;;;27.50;1.00;;;;;;5072825;28;20208;-85
2023/09/09 10:30:59;;;;;;;5.00;4.50;;;27.50;1.00;;;;;;5072831;28;20291;-85
2023/09/09 10:33:28;;;;;;;5.22;4.60;;;27.70;1.00;;;;;;5070635;28;20258;-88
2023/09/09 10:35:54;;;;;;;4.88;4.38;;;27.70;1.00;;;;;;5070698;28;20242;-85
2023/09/09 10:38:22;;;;;;;5.25;4.75;;;27.70;1.00;;;;;;5071796;28;20255;-85
2023/09/09 10:40:49;;;;;;;7.13;4.53;;;27.80;1.00;;;;;;5069953;28;20180;-85
2023/09/09 10:43:14;;;;;;;5.47;4.78;;;27.80;1.00;;;;;;5071684;28;20197;-86
2023/09/09 10:45:42;;;;;;;5.25;4.45;;;27.90;1.00;;;;;;5070574;28;20235;-86
2023/09/09 10:48:10;;;;;;;7.18;5.00;;;27.90;1.00;;;;;;5070594;28;20173;-87
2023/09/09 10:50:47;;;;;;;5.15;4.43;;;27.90;1.00;;;;;;5067565;28;20181;-86
2023/09/09 10:53:27;;;;;;;5.32;4.55;;;28.00;1.00;;;;;;5059735;28;20220;-86
2023/09/09 10:55:55;;;;;;;6.72;4.40;;;28.10;1.00;;;;;;5051273;28;20738;-86
2023/09/09 10:58:29;;;;;;;4.72;4.32;;;28.20;1.00;;;;;;5050590;28;20177;-85
2023/09/09 11:00:57;;;;;;;5.05;4.57;;;28.30;1.00;;;;;;5058565;28;20173;-85
2023/09/09 11:03:25;;;;;;;4.95;4.45;;;28.10;1.00;;;;;;5069202;28;20659;-85
2023/09/09 11:06:10;;;;;;;6.40;4.68;;;28.30;1.00;;;;;;5071832;28;20273;-85
2023/09/09 11:08:44;;;;;;;7.93;4.50;;;28.40;1.00;;;;;;5070984;28;20207;-85
2023/09/09 11:11:14;;;;;;;5.13;4.53;;;28.50;1.00;;;;;;5071602;28;20200;-85
2023/09/09 11:13:42;;;;;;;5.70;4.22;;;28.60;1.00;;;;;;5070647;28;20510;-85
2023/09/09 11:16:23;;;;;;;4.40;4.00;;;28.80;1.00;;;;;;5072130;28;20215;-84
2023/09/09 11:18:51;;;;;;;5.30;4.60;;;28.80;99.90;;;;;;5075818;28;20161;-85
2023/09/09 11:21:24;;;;;;;5.13;4.60;;;28.70;99.90;;;;;;5075615;28;20639;-85
2023/09/09 11:23:53;;;;;;;5.20;4.45;;;28.90;99.90;;;;;;5074481;28;20640;-85
2023/09/09 11:26:19;;;;;;;4.65;4.20;;;28.90;99.90;;;;;;5075430;28;20197;-84
2023/09/09 11:28:47;;;;;;;5.70;4.40;;;28.80;99.90;;;;;;5075573;28;20200;-84
2023/09/09 11:31:16;;;;;;;5.20;4.70;;;29.00;99.90;;;;;;5074637;28;20810;-85
2023/09/09 11:33:42;;;;;;;5.72;4.05;;;29.20;99.90;;;;;;5075386;28;20173;-84
2023/09/09 11:36:08;;;;;;;4.85;4.00;;;29.30;99.90;;;;;;5074229;28;20212;-86
2023/09/09 11:38:34;;;;;;;5.35;4.25;;;29.50;99.90;;;;;;5075285;28;20170;-85
2023/09/09 11:41:00;;;;;;;4.75;4.22;;;29.60;99.90;;;;;;5074741;28;20177;-84
2023/09/09 11:43:26;;;;;;;5.00;4.40;;;29.60;99.90;;;;;;5075067;28;20635;-85
2023/09/09 11:45:53;;;;;;;4.90;4.40;;;29.90;99.90;;;;;;5073676;28;20295;-85
2023/09/09 11:48:19;;;;;;;5.45;4.50;;;30.00;99.90;;;;;;5073689;28;20173;-84
2023/09/09 11:50:46;;;;;;;4.78;4.38;;;29.80;99.90;;;;;;5074374;28;20207;-85
2023/09/09 11:53:12;;;;;;;6.40;4.43;;;30.20;99.90;;;;;;5074769;28;20171;-85
2023/09/09 11:55:38;;;;;;;4.80;4.40;;;30.40;99.90;;;;;;5074885;28;20195;-85
2023/09/09 11:58:05;;;;;;;4.88;4.35;;;30.20;99.90;;;;;;5073951;28;20173;-85
2023/09/09 12:00:30;;;;;;;5.43;4.50;;;30.20;99.90;;;;;;5075684;28;20176;-85
2023/09/09 12:02:56;;;;;;;5.60;4.45;;;30.40;99.90;;;;;;5076491;28;20165;-84
2023/09/09 12:05:30;;;;;;;4.70;4.30;;;30.50;99.90;;;;;;5074655;28;20173;-84
2023/09/09 12:07:58;;;;;;;4.78;4.38;;;30.40;99.90;;;;;;5074976;28;20181;-85
2023/09/09 12:10:29;;;;;;;5.95;4.55;;;30.40;99.90;;;;;;5065693;28;20170;-86
2023/09/09 12:12:54;;;;;;;4.80;4.40;;;30.50;99.90;;;;;;5062061;28;20176;-86
2023/09/09 12:15:20;;;;;;;5.63;4.50;;;30.50;99.90;;;;;;5062156;28;20169;-85
2023/09/09 12:17:46;;;;;;;6.47;4.70;;;30.90;99.90;;;;;;5063284;28;20547;-85
2023/09/09 12:20:12;;;;;;;4.70;4.28;;;31.00;99.90;;;;;;5063932;28;20184;-85
2023/09/09 12:22:47;;;;;;;5.22;4.65;;;30.90;99.90;;;;;;5064213;28;20602;-86
2023/09/09 12:25:33;;;;;;;4.65;4.25;;;30.90;99.90;;;;;;5064789;28;20168;-85
2023/09/09 12:27:59;;;;;;;4.93;4.53;;;30.90;99.90;;;;;;5069712;28;20173;-85
2023/09/09 12:30:34;;;;;;;4.95;4.45;;;30.80;99.90;;;;;;5063114;28;20180;-85
2023/09/09 12:33:14;;;;;;;5.35;4.72;;;30.80;99.90;;;;;;5064426;28;20173;-86
2023/09/09 12:35:49;;;;;;;5.32;4.20;;;30.90;99.90;;;;;;5064774;28;20200;-85
2023/09/09 12:38:15;;;;;;;5.22;4.72;;;30.80;99.90;;;;;;5064739;28;20161;-85
2023/09/09 12:40:45;;;;;;;4.47;4.07;;;31.00;99.90;;;;;;5064683;28;20169;-85
2023/09/09 12:43:11;;;;;;;4.60;4.20;;;31.20;99.90;;;;;;5060571;28;20186;-85
2023/09/09 12:45:52;;;;;;;4.88;4.40;;;31.50;99.90;;;;;;5072353;28;20248;-85
2023/09/09 12:48:19;;;;;;;5.10;4.53;;;31.20;99.90;;;;;;5072904;28;20254;-86
2023/09/09 12:50:45;;;;;;;4.70;4.30;;;31.10;99.90;;;;;;5073809;28;20701;-85